LEAM/LEI METAR and TAF weather

Enter ICAO airport designator
Station Type Date Time Source
LEAM METAR 2020/11/28 20:00 UTC NOAA

LEAM 282000Z VRB05KT CAVOK 15/09 Q1010


Station Type Date Time Source
LEAM Decoded METAR 2020/11/28 20:00 UTC NOAA

Almeria / Aeropuerto, Spain (LEAM) 36-51N 002-23W 21M
Nov 28, 2020 - 03:00 PM EST / 2020.11.28 2000 UTC
Wind: Variable at 6 MPH (5 KT):0
Visibility: greater than 7 mile(s):0
Temperature: 59 F (15 C)
Dew Point: 48 F (9 C)
Relative Humidity: 67%
Pressure (altimeter): 29.83 in. Hg (1010 hPa)
ob: LEAM 282000Z VRB05KT CAVOK 15/09 Q1010
cycle: 20

Station Type Date Time Source
LEAM TAF 2020/11/28 21:27 UTC NOAA

TAF TAF LEAM 282000Z 2821/2921 34010KT 9999 FEW025 TX19/2915Z TN11/2906Z
BECMG 2909/2912 17004KT
BECMG 2917/2920 35010KT

Example: see airport list